Time;durP1;ratioP1;P1;durP2;ratioP2;P2;SDS_P1;SDS_P2;PMS_P1;PMS_P2;Temp;Humidity;BMP_temperature;BMP_pressure;BME280_temperature;BME280_humidity;BME280_pressure;Samples;Min_cycle;Max_cycle;Signal;HPM_P1;HPM_P2
2023/02/26 00:01:24;;;;;;;10.90;4.28;;;2.00;99.90;;;;;;6213841;23;20529;-81
2023/02/26 00:03:51;;;;;;;11.05;3.80;;;2.00;99.90;;;;;;6187152;23;20252;-81
2023/02/26 00:06:17;;;;;;;12.02;3.17;;;1.90;99.90;;;;;;6187728;23;20149;-82
2023/02/26 00:08:42;;;;;;;6.40;3.10;;;1.90;99.90;;;;;;6187734;23;20610;-80
2023/02/26 00:11:09;;;;;;;8.03;3.03;;;1.90;99.90;;;;;;6187734;23;20203;-81
2023/02/26 00:13:36;;;;;;;7.13;3.30;;;1.90;99.90;;;;;;6214462;23;20221;-82
2023/02/26 00:16:04;;;;;;;8.48;4.13;;;1.80;99.90;;;;;;6213499;23;20753;-81
2023/02/26 00:18:29;;;;;;;6.35;3.20;;;1.80;99.90;;;;;;6214551;23;20236;-81
2023/02/26 00:20:55;;;;;;;9.63;2.80;;;1.80;99.90;;;;;;6213649;23;20187;-81
2023/02/26 00:23:22;;;;;;;5.67;3.17;;;1.80;99.90;;;;;;6214148;23;20169;-81
2023/02/26 00:25:48;;;;;;;6.15;3.10;;;1.70;99.90;;;;;;6186546;23;20192;-82
2023/02/26 00:28:14;;;;;;;5.87;3.23;;;1.70;99.90;;;;;;6213718;23;20153;-82
2023/02/26 00:30:40;;;;;;;3.57;2.60;;;1.80;99.90;;;;;;6214132;23;20150;-81
2023/02/26 00:33:06;;;;;;;7.40;3.50;;;1.80;99.90;;;;;;6187502;23;20178;-81
2023/02/26 00:35:32;;;;;;;8.45;3.15;;;1.90;99.90;;;;;;6213447;23;20380;-81
2023/02/26 00:38:06;;;;;;;11.98;3.22;;;1.90;99.90;;;;;;6212744;23;20857;-81
2023/02/26 00:40:45;;;;;;;5.90;2.67;;;2.00;99.90;;;;;;6194068;23;20495;-82
2023/02/26 00:43:17;;;;;;;7.10;2.83;;;2.10;99.90;;;;;;6218041;23;20170;-81
2023/02/26 00:45:58;;;;;;;9.25;3.20;;;2.20;99.90;;;;;;6216686;23;20170;-81
2023/02/26 00:48:41;;;;;;;11.25;3.85;;;2.20;99.90;;;;;;6191340;23;20224;-81
2023/02/26 00:51:26;;;;;;;8.43;3.95;;;2.30;99.90;;;;;;6218178;23;20141;-81
2023/02/26 00:54:09;;;;;;;10.55;2.92;;;2.30;99.90;;;;;;6218299;23;20142;-82
2023/02/26 00:56:36;;;;;;;5.75;3.15;;;2.40;99.90;;;;;;6216210;23;20152;-82
2023/02/26 00:59:02;;;;;;;10.35;3.22;;;2.40;99.90;;;;;;6218075;23;20146;-82
2023/02/26 01:01:27;;;;;;;5.33;3.00;;;2.50;99.90;;;;;;6215915;23;20181;-82
2023/02/26 01:03:53;;;;;;;8.90;2.73;;;2.50;99.90;;;;;;6217210;23;20174;-82
2023/02/26 01:06:21;;;;;;;8.88;3.10;;;2.50;99.90;;;;;;6216724;23;20150;-84
2023/02/26 01:08:56;;;;;;;10.38;4.05;;;2.60;99.90;;;;;;6191047;23;20158;-82
2023/02/26 01:11:21;;;;;;;8.20;3.00;;;2.60;99.90;;;;;;6216791;23;20609;-82
2023/02/26 01:13:50;;;;;;;5.83;3.30;;;2.60;99.90;;;;;;6188529;23;20184;-82
2023/02/26 01:16:21;;;;;;;8.18;3.13;;;2.60;99.90;;;;;;6215879;23;20168;-82
2023/02/26 01:18:53;;;;;;;8.45;3.58;;;2.70;99.90;;;;;;6215194;23;20146;-82
2023/02/26 01:21:29;;;;;;;5.50;3.45;;;2.70;99.90;;;;;;6190120;23;20142;-82
2023/02/26 01:23:55;;;;;;;9.68;2.53;;;2.70;99.90;;;;;;6190325;23;20152;-82
2023/02/26 01:26:25;;;;;;;9.13;3.07;;;2.70;99.90;;;;;;6213451;23;20229;-82
2023/02/26 01:28:52;;;;;;;4.15;2.15;;;2.80;99.90;;;;;;6215859;23;20472;-83
2023/02/26 01:31:40;;;;;;;7.13;2.83;;;2.80;99.90;;;;;;6214197;23;20211;-82
2023/02/26 01:34:16;;;;;;;4.25;2.88;;;2.80;99.90;;;;;;6187011;23;20240;-82
2023/02/26 01:36:50;;;;;;;5.82;3.00;;;2.80;99.90;;;;;;6188453;23;20158;-83
2023/02/26 01:39:27;;;;;;;9.15;2.72;;;2.80;99.90;;;;;;6189032;23;20156;-83
2023/02/26 01:42:14;;;;;;;10.27;2.90;;;2.80;99.90;;;;;;6216867;23;20212;-82
2023/02/26 01:45:01;;;;;;;13.75;3.40;;;2.70;99.90;;;;;;6217814;23;20161;-83
2023/02/26 01:48:06;;;;;;;5.95;2.88;;;2.70;1.00;;;;;;6216273;23;20229;-82
2023/02/26 01:50:34;;;;;;;12.45;2.35;;;2.70;1.00;;;;;;6189881;23;20216;-83
2023/02/26 01:53:17;;;;;;;4.25;2.40;;;2.70;1.00;;;;;;6216294;23;20621;-83
2023/02/26 01:55:46;;;;;;;6.50;2.80;;;2.60;1.00;;;;;;6215273;23;20161;-82
2023/02/26 01:58:12;;;;;;;4.60;2.50;;;2.60;1.00;;;;;;6216258;23;20153;-81
2023/02/26 02:00:37;;;;;;;10.23;2.63;;;2.60;1.00;;;;;;6189828;23;20169;-81
2023/02/26 02:03:03;;;;;;;4.83;2.20;;;2.60;1.00;;;;;;6215631;23;20668;-82
2023/02/26 02:05:38;;;;;;;6.70;2.50;;;2.60;1.00;;;;;;6215883;23;20165;-82
2023/02/26 02:08:03;;;;;;;6.10;1.85;;;2.60;1.00;;;;;;6217035;23;20137;-82
2023/02/26 02:10:29;;;;;;;4.33;2.20;;;2.50;1.00;;;;;;6221527;23;20613;-82
2023/02/26 02:13:10;;;;;;;6.15;2.63;;;2.50;1.00;;;;;;6219194;23;20260;-82
2023/02/26 02:15:54;;;;;;;7.43;3.28;;;2.40;1.00;;;;;;6218599;23;20145;-82
2023/02/26 02:18:48;;;;;;;7.05;2.20;;;2.30;1.00;;;;;;6218853;23;20488;-82
2023/02/26 02:21:35;;;;;;;5.10;2.88;;;2.30;1.00;;;;;;6204838;23;20161;-84
2023/02/26 02:24:17;;;;;;;2.13;1.70;;;2.30;1.00;;;;;;6216649;23;20560;-83
2023/02/26 02:27:01;;;;;;;5.63;1.90;;;2.20;1.00;;;;;;6216745;23;20142;-82
2023/02/26 02:29:35;;;;;;;4.32;2.30;;;2.20;1.00;;;;;;6217960;23;20138;-81
2023/02/26 02:32:08;;;;;;;4.43;2.05;;;2.10;1.00;;;;;;6190510;23;20590;-82
2023/02/26 02:34:45;;;;;;;4.35;2.20;;;2.20;1.00;;;;;;6216940;23;20651;-83
2023/02/26 02:37:13;;;;;;;6.50;2.33;;;2.10;1.00;;;;;;6216020;23;20632;-83
2023/02/26 02:40:00;;;;;;;3.95;2.22;;;2.10;1.00;;;;;;6215709;23;20157;-82
2023/02/26 02:42:29;;;;;;;6.95;3.03;;;2.10;1.00;;;;;;6216694;23;20177;-82
2023/02/26 02:45:08;;;;;;;7.18;2.38;;;2.10;1.00;;;;;;6217341;23;20261;-83
2023/02/26 02:47:38;;;;;;;3.17;2.10;;;2.10;1.00;;;;;;6222955;23;20161;-84
2023/02/26 02:50:13;;;;;;;13.60;2.30;;;2.10;1.00;;;;;;6219836;23;20437;-82
2023/02/26 02:53:01;;;;;;;4.82;2.33;;;2.00;1.00;;;;;;6221731;23;20169;-81
2023/02/26 02:55:32;;;;;;;7.43;2.90;;;2.00;1.00;;;;;;6194822;23;20150;-83
2023/02/26 02:58:06;;;;;;;4.50;2.47;;;1.90;1.00;;;;;;6194745;23;20715;-83
2023/02/26 03:00:36;;;;;;;6.50;2.58;;;1.90;1.00;;;;;;6222244;23;20146;-84
2023/02/26 03:03:14;;;;;;;8.43;3.13;;;1.90;1.00;;;;;;6221463;23;20539;-82
2023/02/26 03:05:39;;;;;;;5.95;2.40;;;1.90;1.00;;;;;;6223191;23;20192;-82
2023/02/26 03:08:08;;;;;;;4.33;2.27;;;1.90;23.70;;;;;;6221504;23;20158;-83
2023/02/26 03:10:35;;;;;;;9.30;2.70;;;1.80;73.40;;;;;;6220793;23;20157;-82
2023/02/26 03:13:00;;;;;;;9.65;2.20;;;1.80;99.90;;;;;;6220769;23;20170;-83
2023/02/26 03:15:48;;;;;;;2.53;2.10;;;1.80;99.90;;;;;;6196165;23;20604;-82
2023/02/26 03:18:32;;;;;;;5.57;1.70;;;1.80;99.90;;;;;;6224508;23;20153;-83
2023/02/26 03:21:12;;;;;;;3.67;1.92;;;1.80;99.90;;;;;;6216890;23;20554;-83
2023/02/26 03:23:45;;;;;;;5.43;2.53;;;1.80;99.90;;;;;;6218135;23;20150;-82
2023/02/26 03:26:51;;;;;;;6.45;2.00;;;1.70;99.90;;;;;;6215192;23;20506;-82
2023/02/26 03:29:51;;;;;;;3.80;2.00;;;1.70;99.90;;;;;;6199551;23;20149;-82
2023/02/26 03:32:24;;;;;;;3.65;1.70;;;1.60;99.90;;;;;;6210180;23;20181;-81
2023/02/26 03:34:57;;;;;;;4.75;1.95;;;1.60;99.90;;;;;;6215982;23;20150;-83
2023/02/26 03:37:29;;;;;;;7.43;2.00;;;1.60;99.90;;;;;;6217481;23;20547;-81
2023/02/26 03:39:59;;;;;;;7.53;1.88;;;1.60;99.90;;;;;;6218875;23;20146;-84
2023/02/26 03:42:31;;;;;;;4.32;1.90;;;1.50;99.90;;;;;;6218773;23;20188;-82
2023/02/26 03:45:03;;;;;;;5.05;2.03;;;1.50;99.90;;;;;;6217061;23;20219;-82
2023/02/26 03:47:31;;;;;;;3.70;2.33;;;1.50;99.90;;;;;;6219120;23;20138;-82
2023/02/26 03:49:59;;;;;;;6.15;1.65;;;1.40;99.90;;;;;;6217351;23;20156;-83
2023/02/26 03:52:28;;;;;;;3.30;1.70;;;1.40;99.90;;;;;;6190351;23;20174;-83
2023/02/26 03:55:05;;;;;;;3.40;1.85;;;1.40;99.90;;;;;;6190757;23;20157;-83
2023/02/26 03:57:30;;;;;;;5.40;1.98;;;1.30;99.90;;;;;;6216916;23;20141;-83
2023/02/26 03:59:56;;;;;;;3.80;1.77;;;1.30;99.90;;;;;;6215380;23;20157;-81
2023/02/26 04:02:38;;;;;;;4.80;2.00;;;1.20;99.90;;;;;;6215631;23;20184;-83
2023/02/26 04:05:13;;;;;;;4.13;1.80;;;1.20;99.90;;;;;;6189258;23;20251;-82
2023/02/26 04:07:39;;;;;;;2.13;1.60;;;1.20;99.90;;;;;;6216630;23;20137;-83
2023/02/26 04:10:06;;;;;;;4.22;2.28;;;1.10;99.90;;;;;;6217085;23;20157;-83
2023/02/26 04:12:32;;;;;;;6.40;2.08;;;1.10;1.00;;;;;;6216419;23;20166;-83
2023/02/26 04:14:58;;;;;;;11.43;2.20;;;1.10;1.00;;;;;;6216187;23;20566;-81
2023/02/26 04:17:23;;;;;;;3.63;1.40;;;1.00;1.00;;;;;;6214674;23;20165;-81
2023/02/26 04:19:49;;;;;;;3.97;1.70;;;1.00;1.00;;;;;;6214891;23;20153;-82
2023/02/26 04:22:14;;;;;;;4.47;1.60;;;1.00;1.00;;;;;;6216722;23;20252;-82
2023/02/26 04:24:40;;;;;;;7.60;1.70;;;1.00;1.00;;;;;;6215535;23;20692;-83
2023/02/26 04:27:06;;;;;;;3.20;1.90;;;1.00;1.00;;;;;;6216411;23;20389;-81
2023/02/26 04:29:31;;;;;;;2.63;1.53;;;1.00;1.00;;;;;;6216040;23;20153;-81
2023/02/26 04:31:57;;;;;;;3.50;1.50;;;1.00;1.00;;;;;;6214842;23;20170;-82
2023/02/26 04:34:22;;;;;;;4.87;1.53;;;1.00;1.00;;;;;;6214657;23;20158;-81
2023/02/26 04:36:48;;;;;;;4.23;1.40;;;0.90;1.00;;;;;;6188367;23;20164;-82
2023/02/26 04:39:13;;;;;;;3.27;1.53;;;0.90;1.00;;;;;;6216380;23;20164;-82
2023/02/26 04:41:39;;;;;;;3.67;1.20;;;0.90;1.00;;;;;;6216211;23;20177;-82
2023/02/26 04:44:05;;;;;;;3.80;1.67;;;0.90;34.40;;;;;;6189361;23;20862;-82
2023/02/26 04:46:31;;;;;;;3.80;1.60;;;0.90;99.90;;;;;;6215041;23;20487;-81
2023/02/26 04:48:57;;;;;;;5.45;1.70;;;0.90;99.90;;;;;;6188737;23;20427;-81
2023/02/26 04:51:22;;;;;;;7.87;1.87;;;0.90;99.90;;;;;;6187529;23;20154;-81
2023/02/26 04:53:48;;;;;;;5.13;2.07;;;0.90;99.90;;;;;;6215482;23;20613;-82
2023/02/26 04:56:13;;;;;;;2.53;1.80;;;0.90;99.90;;;;;;6188910;23;20150;-81
2023/02/26 04:58:39;;;;;;;5.73;2.00;;;0.90;99.90;;;;;;6188828;23;20161;-79
2023/02/26 05:01:05;;;;;;;4.73;1.93;;;0.80;99.90;;;;;;6214785;23;20165;-81
2023/02/26 05:03:30;;;;;;;5.00;2.07;;;0.80;99.90;;;;;;6215145;23;20531;-83
2023/02/26 05:05:56;;;;;;;4.00;2.37;;;0.80;99.90;;;;;;6216724;23;20910;-82
2023/02/26 05:08:22;;;;;;;5.60;2.37;;;0.80;99.90;;;;;;6214189;23;20604;-82
2023/02/26 05:10:48;;;;;;;6.17;2.73;;;0.80;99.90;;;;;;6219358;23;20185;-81
2023/02/26 05:13:13;;;;;;;5.20;2.13;;;0.80;99.90;;;;;;6191087;23;20672;-81
2023/02/26 05:15:39;;;;;;;5.23;1.67;;;0.70;99.90;;;;;;6219959;23;20200;-82
2023/02/26 05:18:04;;;;;;;5.63;2.17;;;0.80;99.90;;;;;;6219848;23;20558;-81
2023/02/26 05:20:30;;;;;;;2.97;2.03;;;0.80;99.90;;;;;;6219876;23;20158;-82
2023/02/26 05:22:55;;;;;;;3.90;1.80;;;0.70;99.90;;;;;;6219241;23;20181;-82
2023/02/26 05:25:21;;;;;;;2.97;1.87;;;0.70;99.90;;;;;;6192332;23;20672;-82
2023/02/26 05:27:47;;;;;;;3.47;2.40;;;0.70;1.00;;;;;;6218469;23;20149;-80
2023/02/26 05:30:14;;;;;;;6.80;2.03;;;0.70;1.00;;;;;;6191124;23;20149;-83
2023/02/26 05:32:40;;;;;;;3.85;2.20;;;0.60;1.00;;;;;;6190674;23;20208;-82
2023/02/26 05:35:06;;;;;;;3.13;2.08;;;0.60;1.00;;;;;;6217703;23;20264;-82
2023/02/26 05:37:31;;;;;;;4.47;1.80;;;0.60;1.00;;;;;;6218300;23;20165;-82
2023/02/26 05:39:57;;;;;;;3.10;1.60;;;0.60;1.00;;;;;;6218294;23;20376;-83
2023/02/26 05:42:23;;;;;;;3.40;1.93;;;0.60;1.00;;;;;;6190332;23;20509;-83
2023/02/26 05:44:49;;;;;;;5.10;1.77;;;0.60;1.00;;;;;;6218005;23;20731;-82
2023/02/26 05:47:15;;;;;;;2.67;1.60;;;0.60;1.00;;;;;;6191530;23;20196;-82
2023/02/26 05:49:40;;;;;;;4.70;1.67;;;0.60;1.00;;;;;;6218653;23;20172;-82
2023/02/26 05:52:06;;;;;;;4.93;1.90;;;0.60;1.00;;;;;;6216968;23;20193;-82
2023/02/26 05:54:31;;;;;;;2.00;1.40;;;0.50;1.00;;;;;;6218118;23;20168;-83
2023/02/26 05:56:57;;;;;;;4.20;1.63;;;0.50;1.00;;;;;;6218204;23;20160;-82
2023/02/26 05:59:23;;;;;;;3.40;1.73;;;0.50;1.00;;;;;;6217167;23;20158;-82
2023/02/26 06:01:48;;;;;;;1.40;1.20;;;0.50;1.00;;;;;;6218075;23;20203;-82
2023/02/26 06:04:14;;;;;;;3.13;1.50;;;0.50;1.00;;;;;;6217808;23;20488;-83
2023/02/26 06:06:39;;;;;;;4.77;1.73;;;0.40;1.00;;;;;;6192596;23;20158;-83
2023/02/26 06:09:05;;;;;;;2.90;1.37;;;0.40;1.00;;;;;;6219557;23;20558;-82
2023/02/26 06:11:31;;;;;;;4.53;1.83;;;0.30;1.00;;;;;;6197538;23;20205;-82
2023/02/26 06:13:57;;;;;;;2.10;1.00;;;0.30;1.00;;;;;;6221421;23;20153;-83
2023/02/26 06:16:25;;;;;;;3.43;2.27;;;0.30;1.00;;;;;;6217557;23;20373;-82
2023/02/26 06:18:51;;;;;;;5.65;1.77;;;0.30;1.00;;;;;;6216985;23;20154;-82
2023/02/26 06:21:17;;;;;;;11.80;3.20;;;0.30;1.00;;;;;;6189906;23;20185;-82
2023/02/26 06:23:42;;;;;;;4.60;1.33;;;0.30;1.00;;;;;;6190289;23;20166;-83
2023/02/26 06:26:08;;;;;;;7.93;1.83;;;0.30;1.00;;;;;;6215545;23;20459;-82
2023/02/26 06:28:34;;;;;;;4.10;1.70;;;0.30;1.00;;;;;;6217456;23;20661;-82
2023/02/26 06:30:59;;;;;;;3.90;1.53;;;0.30;1.00;;;;;;6217096;23;20181;-82
2023/02/26 06:33:25;;;;;;;4.03;2.13;;;0.40;1.00;;;;;;6217377;23;20252;-82
2023/02/26 06:35:50;;;;;;;3.27;1.40;;;0.40;99.90;;;;;;6216193;23;20164;-83
2023/02/26 06:38:17;;;;;;;2.67;1.97;;;0.50;99.90;;;;;;6217040;23;20158;-82
2023/02/26 06:40:43;;;;;;;3.55;1.52;;;0.50;99.90;;;;;;6194679;23;20212;-83
2023/02/26 06:43:08;;;;;;;4.22;1.60;;;0.50;99.90;;;;;;6191359;23;20217;-82
2023/02/26 06:45:34;;;;;;;2.10;1.63;;;0.60;99.90;;;;;;6217550;23;20245;-81
2023/02/26 06:48:00;;;;;;;7.43;1.73;;;0.70;99.90;;;;;;6216743;23;20166;-82
2023/02/26 06:50:25;;;;;;;2.47;1.27;;;0.80;99.90;;;;;;6192482;23;20184;-82
2023/02/26 06:52:51;;;;;;;5.50;1.70;;;0.90;74.30;;;;;;6222427;23;20232;-81
2023/02/26 06:55:16;;;;;;;4.60;1.60;;;0.90;1.00;;;;;;6220814;23;20185;-82
2023/02/26 06:57:42;;;;;;;3.10;1.50;;;1.00;1.00;;;;;;6217861;23;20154;-82
2023/02/26 07:00:09;;;;;;;1.63;1.47;;;1.10;1.00;;;;;;6216151;23;20219;-82
2023/02/26 07:02:34;;;;;;;2.50;1.63;;;1.20;1.00;;;;;;6214705;23;20170;-82
2023/02/26 07:05:00;;;;;;;3.30;1.83;;;1.40;1.00;;;;;;6216170;23;20180;-83
2023/02/26 07:07:25;;;;;;;4.17;1.67;;;1.60;1.00;;;;;;6216718;23;20482;-83
2023/02/26 07:09:51;;;;;;;4.30;2.10;;;1.80;1.00;;;;;;6215388;23;20177;-83
2023/02/26 07:12:17;;;;;;;4.23;2.10;;;2.60;1.00;;;;;;6188391;23;20204;-85
2023/02/26 07:14:43;;;;;;;4.30;1.53;;;5.80;99.90;;;;;;6215081;23;20150;-84
2023/02/26 07:17:09;;;;;;;4.13;1.80;;;9.00;99.90;;;;;;6215986;23;20177;-83
2023/02/26 07:19:35;;;;;;;2.90;1.57;;;11.30;99.90;;;;;;6214167;23;20382;-85
2023/02/26 07:22:00;;;;;;;7.27;2.10;;;13.40;99.90;;;;;;6187004;23;20174;-83
2023/02/26 07:24:28;;;;;;;4.87;1.80;;;15.20;99.90;;;;;;6215080;23;20187;-83
2023/02/26 07:26:56;;;;;;;5.67;2.40;;;16.70;99.90;;;;;;6215429;23;20276;-83
2023/02/26 07:29:24;;;;;;;5.50;2.53;;;18.10;99.90;;;;;;6212492;23;20508;-84
2023/02/26 07:31:49;;;;;;;8.33;3.40;;;19.20;99.90;;;;;;6214798;23;20517;-84
2023/02/26 07:34:17;;;;;;;7.70;2.87;;;19.10;99.90;;;;;;6214517;23;20843;-84
2023/02/26 07:36:45;;;;;;;4.17;2.97;;;19.80;99.90;;;;;;6214809;23;20153;-84
2023/02/26 07:39:11;;;;;;;6.30;2.30;;;20.80;99.90;;;;;;6215349;23;20407;-83
2023/02/26 07:41:38;;;;;;;5.53;3.00;;;21.90;99.90;;;;;;6215264;23;20406;-84
2023/02/26 07:44:04;;;;;;;5.53;2.90;;;22.80;99.90;;;;;;6214707;23;20169;-84
2023/02/26 07:46:29;;;;;;;3.43;2.20;;;23.50;99.90;;;;;;6215391;23;20484;-85
2023/02/26 07:48:55;;;;;;;6.73;3.33;;;24.30;99.90;;;;;;6215828;23;20155;-83
2023/02/26 07:51:20;;;;;;;6.30;2.00;;;25.00;99.90;;;;;;6215458;23;20150;-83
2023/02/26 07:53:46;;;;;;;4.50;2.40;;;25.70;99.90;;;;;;6216256;23;20146;-83
2023/02/26 07:56:11;;;;;;;5.70;2.03;;;26.10;99.90;;;;;;6215379;23;20468;-83
2023/02/26 07:58:37;;;;;;;3.87;2.10;;;26.50;99.90;;;;;;6216885;23;20508;-82
2023/02/26 08:01:03;;;;;;;4.60;1.93;;;26.80;99.90;;;;;;6214786;23;20145;-83
2023/02/26 08:03:28;;;;;;;3.13;2.00;;;27.00;99.90;;;;;;6216257;23;20293;-82
2023/02/26 08:05:54;;;;;;;5.73;1.70;;;27.10;99.90;;;;;;6215584;23;20190;-82
2023/02/26 08:08:19;;;;;;;4.27;2.47;;;27.40;99.90;;;;;;6191051;23;20157;-83
2023/02/26 08:10:45;;;;;;;7.70;2.10;;;27.70;99.90;;;;;;6220352;23;20145;-83
2023/02/26 08:13:10;;;;;;;5.50;2.40;;;27.60;99.90;;;;;;6217697;23;20244;-83
2023/02/26 08:15:36;;;;;;;5.13;2.20;;;27.50;99.90;;;;;;6218744;23;20191;-84
2023/02/26 08:18:04;;;;;;;4.60;2.33;;;27.50;99.90;;;;;;6215501;23;20157;-84
2023/02/26 08:20:51;;;;;;;4.93;2.63;;;27.90;99.90;;;;;;6217764;23;20160;-85
2023/02/26 08:23:19;;;;;;;3.77;2.07;;;28.40;99.90;;;;;;6216496;23;20423;-84
2023/02/26 08:25:47;;;;;;;4.40;2.10;;;28.70;99.90;;;;;;6217868;23;20387;-85
2023/02/26 08:28:13;;;;;;;5.30;2.07;;;29.10;99.90;;;;;;6190448;23;20687;-84
2023/02/26 08:30:39;;;;;;;3.53;1.90;;;29.30;99.90;;;;;;6216824;23;20380;-83
2023/02/26 08:33:07;;;;;;;5.30;2.30;;;28.90;99.90;;;;;;6191492;23;20444;-83
2023/02/26 08:35:42;;;;;;;4.90;2.30;;;28.70;99.90;;;;;;6217356;23;20188;-84
2023/02/26 08:38:10;;;;;;;5.20;2.00;;;29.00;99.90;;;;;;6190332;23;20503;-83
2023/02/26 08:40:45;;;;;;;;;;;;;;;;;;;;;
2023/02/26 08:43:11;;;;;;;5.23;1.73;;;29.10;99.90;;;;;;6216688;23;20474;-84
2023/02/26 08:45:45;;;;;;;3.80;2.20;;;28.60;99.90;;;;;;6216510;23;20430;-83
2023/02/26 08:48:16;;;;;;;3.73;1.80;;;28.50;99.90;;;;;;6216792;23;20164;-84
2023/02/26 08:50:41;;;;;;;4.67;1.87;;;28.50;99.90;;;;;;6190954;23;20431;-84
2023/02/26 08:53:07;;;;;;;4.50;1.47;;;28.10;99.90;;;;;;6218141;23;20788;-84
2023/02/26 08:55:32;;;;;;;4.43;2.03;;;27.80;99.90;;;;;;6218791;23;20260;-83
2023/02/26 08:57:59;;;;;;;2.97;1.50;;;28.20;99.90;;;;;;6219004;23;20164;-85
2023/02/26 09:00:24;;;;;;;3.53;2.20;;;28.80;99.90;;;;;;6218417;23;20170;-85
2023/02/26 09:02:50;;;;;;;4.07;1.60;;;29.00;99.90;;;;;;6219189;23;20419;-85
2023/02/26 09:05:16;;;;;;;1.97;1.23;;;29.50;99.90;;;;;;6218677;23;20165;-85
2023/02/26 09:07:42;;;;;;;2.60;1.40;;;29.90;99.90;;;;;;6190817;23;20156;-85
2023/02/26 09:10:08;;;;;;;2.43;1.37;;;30.00;99.90;;;;;;6218609;23;20493;-84
2023/02/26 09:12:37;;;;;;;2.77;1.40;;;29.40;99.90;;;;;;6191341;23;20838;-85
2023/02/26 09:15:06;;;;;;;5.93;2.03;;;29.00;99.90;;;;;;6219482;23;21146;-85
2023/02/26 09:17:32;;;;;;;4.10;1.80;;;28.40;99.90;;;;;;6218051;23;20528;-84
2023/02/26 09:19:58;;;;;;;2.83;1.40;;;28.10;99.90;;;;;;6218157;23;20834;-84
2023/02/26 09:22:23;;;;;;;2.83;1.43;;;27.80;99.90;;;;;;6218503;23;20180;-84
2023/02/26 09:24:49;;;;;;;3.70;1.70;;;27.70;99.90;;;;;;6224114;23;20696;-84
2023/02/26 09:27:15;;;;;;;2.90;1.90;;;27.60;99.90;;;;;;6221877;23;20181;-84
2023/02/26 09:29:40;;;;;;;7.47;2.40;;;27.40;99.90;;;;;;6216760;23;20150;-82
2023/02/26 09:32:07;;;;;;;4.00;1.60;;;27.40;99.90;;;;;;6218308;23;20169;-83
2023/02/26 09:34:37;;;;;;;2.33;1.27;;;27.30;99.90;;;;;;6191887;23;20154;-83
2023/02/26 09:37:07;;;;;;;2.30;1.30;;;27.00;99.90;;;;;;6191897;23;20775;-83
2023/02/26 09:39:34;;;;;;;3.17;1.47;;;26.60;99.90;;;;;;6216682;23;20384;-83
2023/02/26 09:42:21;;;;;;;2.93;1.30;;;26.40;99.90;;;;;;6220670;23;20400;-83
2023/02/26 09:44:52;;;;;;;3.10;1.33;;;26.20;99.90;;;;;;6217529;23;20408;-82
2023/02/26 09:47:25;;;;;;;4.77;1.30;;;25.80;99.90;;;;;;6190676;23;20402;-84
2023/02/26 09:50:04;;;;;;;3.80;1.60;;;25.80;99.90;;;;;;6217761;23;20377;-83
2023/02/26 09:52:39;;;;;;;2.67;1.70;;;25.60;99.90;;;;;;6216480;23;20468;-84
2023/02/26 09:55:29;;;;;;;2.17;1.23;;;25.10;99.90;;;;;;6215985;23;20387;-83
2023/02/26 09:58:04;;;;;;;3.03;1.30;;;25.50;99.90;;;;;;6189257;23;20423;-84
2023/02/26 10:00:50;;;;;;;3.80;1.70;;;24.10;99.90;;;;;;6216557;23;20391;-83
2023/02/26 10:03:18;;;;;;;4.23;1.53;;;24.30;99.90;;;;;;6217156;23;20447;-82
2023/02/26 10:06:19;;;;;;;3.07;1.10;;;24.60;99.90;;;;;;6216099;23;20420;-82
2023/02/26 10:09:23;;;;;;;2.70;1.07;;;23.20;99.90;;;;;;6164064;23;20384;-83
2023/02/26 10:11:57;;;;;;;2.30;1.27;;;22.80;99.90;;;;;;6216655;23;21012;-82
2023/02/26 10:14:37;;;;;;;2.93;1.00;;;20.70;99.90;;;;;;6214484;23;20441;-82
2023/02/26 10:17:19;;;;;;;1.87;1.00;;;18.60;99.20;;;;;;6216545;23;20409;-82
2023/02/26 10:19:47;;;;;;;1.87;1.20;;;19.00;99.90;;;;;;6216267;23;20365;-81
2023/02/26 10:22:32;;;;;;;2.33;1.27;;;17.80;97.60;;;;;;6216189;23;20413;-80
2023/02/26 10:25:04;;;;;;;3.40;1.63;;;16.30;93.10;;;;;;6216670;23;20369;-82
2023/02/26 10:27:41;;;;;;;4.53;2.13;;;16.90;95.30;;;;;;6216303;23;20366;-81
2023/02/26 10:30:21;;;;;;;2.40;1.40;;;17.20;96.70;;;;;;6187782;23;20788;-81
2023/02/26 10:33:10;;;;;;;2.03;1.50;;;15.90;93.10;;;;;;6218864;23;20448;-83
2023/02/26 10:35:50;;;;;;;3.90;1.50;;;16.80;96.30;;;;;;6190393;23;20450;-80
2023/02/26 10:38:21;;;;;;;2.93;1.27;;;18.20;99.90;;;;;;6218114;23;20420;-81
2023/02/26 10:40:58;;;;;;;2.97;1.00;;;19.30;99.90;;;;;;6219109;23;20383;-80
2023/02/26 10:43:40;;;;;;;2.03;1.00;;;20.50;99.90;;;;;;6193523;23;20783;-82
2023/02/26 10:46:17;;;;;;;3.97;1.10;;;21.10;99.90;;;;;;6218901;23;20381;-79
2023/02/26 10:49:07;;;;;;;3.33;1.17;;;21.50;99.90;;;;;;6220244;23;20428;-81
2023/02/26 10:51:39;;;;;;;2.83;0.93;;;21.80;99.90;;;;;;6194926;23;20409;-79
2023/02/26 10:54:10;;;;;;;1.50;0.83;;;22.00;99.90;;;;;;6218890;23;20388;-80
2023/02/26 10:56:36;;;;;;;2.70;1.00;;;22.10;99.90;;;;;;6220869;23;20369;-81
2023/02/26 10:59:01;;;;;;;3.30;1.10;;;21.70;99.90;;;;;;6197505;23;20442;-84
2023/02/26 11:01:29;;;;;;;3.17;1.20;;;21.60;99.90;;;;;;6214519;23;20663;-83
2023/02/26 11:04:02;;;;;;;1.27;0.90;;;21.80;99.90;;;;;;6214292;23;20172;-82
2023/02/26 11:06:32;;;;;;;2.33;1.00;;;22.20;99.90;;;;;;6216127;23;20864;-83
2023/02/26 11:09:02;;;;;;;3.70;1.60;;;22.10;99.90;;;;;;6104625;22;20452;-82
2023/02/26 11:18:20;;;;;;;3.60;1.53;;;22.80;99.90;;;;;;6214699;23;20421;-81
2023/02/26 11:20:46;;;;;;;2.30;1.10;;;22.80;99.90;;;;;;6183213;23;20373;-82
2023/02/26 11:23:16;;;;;;;3.90;1.13;;;23.10;99.90;;;;;;6184800;23;20378;-82
2023/02/26 11:25:43;;;;;;;2.10;1.00;;;23.20;99.90;;;;;;6183661;23;20469;-82
2023/02/26 11:28:28;;;;;;;4.03;1.10;;;23.10;99.90;;;;;;6185819;23;20378;-82
2023/02/26 11:30:56;;;;;;;3.27;1.03;;;23.50;99.90;;;;;;6184939;23;20908;-82
2023/02/26 11:33:27;;;;;;;2.30;1.10;;;23.60;99.90;;;;;;6185302;23;20420;-82
2023/02/26 11:35:58;;;;;;;3.07;0.87;;;23.40;99.90;;;;;;6185468;23;20412;-81
2023/02/26 11:38:26;;;;;;;2.90;1.50;;;22.90;99.90;;;;;;6186033;23;20721;-82
2023/02/26 11:40:55;;;;;;;2.80;1.43;;;21.30;99.90;;;;;;6182886;23;21042;-81
2023/02/26 11:43:23;;;;;;;4.00;1.50;;;19.50;97.70;;;;;;6179728;23;20921;-81
2023/02/26 11:46:04;;;;;;;2.93;1.63;;;18.40;94.50;;;;;;6184042;23;20421;-81
2023/02/26 11:48:35;;;;;;;4.27;2.13;;;16.90;91.10;;;;;;6184342;23;20425;-81
2023/02/26 11:51:04;;;;;;;3.40;1.40;;;15.70;85.30;;;;;;6184566;23;20719;-83
2023/02/26 11:53:41;;;;;;;1.90;1.10;;;16.40;90.60;;;;;;6183664;23;20404;-82
2023/02/26 11:56:12;;;;;;;2.20;1.10;;;16.80;92.40;;;;;;6181716;23;20427;-81
2023/02/26 11:58:43;;;;;;;1.90;1.10;;;16.30;90.50;;;;;;6182520;23;20441;-82
2023/02/26 12:01:11;;;;;;;4.90;1.50;;;15.90;90.30;;;;;;6183988;23;20387;-84
2023/02/26 12:03:42;;;;;;;2.47;1.00;;;14.80;81.80;;;;;;6184435;23;20441;-82
2023/02/26 12:06:19;;;;;;;1.93;1.10;;;15.50;88.90;;;;;;6183533;23;20373;-83
2023/02/26 12:08:45;;;;;;;4.13;0.90;;;16.70;93.40;;;;;;6182563;23;20790;-83
2023/02/26 12:11:13;;;;;;;3.10;1.57;;;17.90;97.10;;;;;;6184105;23;20701;-83
2023/02/26 12:14:13;;;;;;;3.60;1.47;;;19.20;99.90;;;;;;6183223;23;20411;-83
2023/02/26 12:17:05;;;;;;;3.07;1.30;;;19.90;99.90;;;;;;6182063;23;20939;-80
2023/02/26 12:19:43;;;;;;;4.43;1.37;;;19.60;99.90;;;;;;6182956;23;20479;-82
2023/02/26 12:22:27;;;;;;;2.53;1.20;;;18.40;97.80;;;;;;6183970;23;20364;-83
2023/02/26 12:25:22;;;;;;;4.77;1.20;;;17.10;93.40;;;;;;6183868;23;20706;-82
2023/02/26 12:28:19;;;;;;;2.50;1.40;;;15.90;89.90;;;;;;6182463;23;20713;-82
2023/02/26 12:30:51;;;;;;;2.67;1.20;;;14.90;85.20;;;;;;6181695;23;20393;-83
2023/02/26 12:33:35;;;;;;;2.30;1.10;;;14.00;79.40;;;;;;6181559;23;20375;-83
2023/02/26 12:36:07;;;;;;;3.77;1.33;;;13.70;79.10;;;;;;6181689;23;21292;-83
2023/02/26 12:39:19;;;;;;;1.90;1.20;;;13.40;77.90;;;;;;6182774;23;20362;-84
2023/02/26 12:41:50;;;;;;;3.83;1.13;;;13.60;80.00;;;;;;6090183;23;20991;-83
2023/02/26 12:44:48;;;;;;;2.07;0.90;;;14.70;89.40;;;;;;6168983;23;20380;-84
2023/02/26 12:47:51;;;;;;;3.00;1.07;;;15.60;92.20;;;;;;6183465;23;20389;-84
2023/02/26 12:50:40;;;;;;;3.83;1.20;;;15.50;91.40;;;;;;6181571;23;20427;-84
2023/02/26 12:53:16;;;;;;;1.63;1.10;;;15.70;92.50;;;;;;6182456;23;20436;-82
2023/02/26 12:55:51;;;;;;;4.37;1.53;;;16.60;95.00;;;;;;6183312;23;20412;-85
2023/02/26 12:58:46;;;;;;;1.50;1.03;;;16.40;94.10;;;;;;6183204;23;20515;-83
2023/02/26 13:01:34;;;;;;;6.40;2.00;;;16.70;95.20;;;;;;6186164;23;20369;-84
2023/02/26 13:04:17;;;;;;;4.20;1.30;;;17.10;96.50;;;;;;6185981;23;20383;-84
2023/02/26 13:07:15;;;;;;;2.20;1.60;;;17.30;97.20;;;;;;6185684;23;20361;-84
2023/02/26 13:09:49;;;;;;;3.47;1.57;;;17.80;98.80;;;;;;6183345;23;20423;-84
2023/02/26 13:12:41;;;;;;;2.50;1.40;;;18.20;99.80;;;;;;6182924;23;20887;-86
2023/02/26 13:15:46;;;;;;;1.70;1.00;;;18.20;99.70;;;;;;6184123;23;20449;-84
2023/02/26 13:18:25;;;;;;;2.53;2.33;;;17.40;96.70;;;;;;6182537;23;20393;-85
2023/02/26 13:20:59;;;;;;;3.20;1.73;;;16.00;91.70;;;;;;6183640;23;20788;-83
2023/02/26 13:23:35;;;;;;;2.03;1.10;;;15.60;90.70;;;;;;6188500;23;20363;-83
2023/02/26 13:26:07;;;;;;;2.40;0.87;;;15.80;92.00;;;;;;6184695;23;20413;-84